Time;durP1;ratioP1;P1;durP2;ratioP2;P2;SDS_P1;SDS_P2;PMS_P1;PMS_P2;Temp;Humidity;BMP_temperature;BMP_pressure;BME280_temperature;BME280_humidity;BME280_pressure;Samples;Min_cycle;Max_cycle;Signal;HPM_P1;HPM_P2
2022/11/17 00:01:55;;;;;;;9.65;5.88;;;8.20;99.90;;;;;;6073430;23;20268;-70
2022/11/17 00:04:25;;;;;;;9.55;6.65;;;8.20;99.90;;;;;;6094787;23;20690;-71
2022/11/17 00:06:53;;;;;;;7.07;6.47;;;8.20;99.90;;;;;;6098168;23;20193;-70
2022/11/17 00:09:19;;;;;;;7.03;5.93;;;8.20;99.90;;;;;;6089460;23;20633;-70
2022/11/17 00:14:35;;;;;;;9.30;6.38;;;8.20;99.90;;;;;;6090278;23;20280;-71
2022/11/17 00:17:06;;;;;;;8.50;6.45;;;8.20;99.90;;;;;;6095058;23;20201;-71
2022/11/17 00:22:20;;;;;;;6.32;5.72;;;8.20;99.90;;;;;;6091208;23;20333;-71
2022/11/17 00:24:48;;;;;;;6.57;5.78;;;8.20;99.90;;;;;;6091653;23;20279;-70
2022/11/17 00:27:16;;;;;;;7.30;6.60;;;8.20;99.90;;;;;;6073299;23;20790;-71
2022/11/17 00:29:43;;;;;;;6.28;5.65;;;8.20;99.90;;;;;;6100138;23;20650;-70
2022/11/17 00:34:56;;;;;;;6.30;5.57;;;8.20;99.90;;;;;;6104802;23;20278;-70
2022/11/17 00:37:24;;;;;;;7.25;6.13;;;8.10;99.90;;;;;;6089089;23;20284;-71
2022/11/17 00:39:51;;;;;;;7.55;6.88;;;8.20;99.90;;;;;;6083469;23;20218;-70
2022/11/17 00:42:19;;;;;;;7.05;6.35;;;8.20;99.90;;;;;;6088558;23;20225;-71
2022/11/17 00:44:46;;;;;;;7.60;6.38;;;8.20;99.90;;;;;;6087894;23;20202;-70
2022/11/17 00:47:13;;;;;;;8.27;7.10;;;8.20;99.90;;;;;;6089006;23;20259;-70
2022/11/17 00:49:40;;;;;;;7.97;7.18;;;8.20;99.90;;;;;;6089357;23;20229;-71
2022/11/17 00:52:10;;;;;;;7.53;6.72;;;8.20;99.90;;;;;;6090547;23;20276;-71
2022/11/17 00:54:37;;;;;;;7.60;6.90;;;8.20;99.90;;;;;;6118347;23;20217;-70
2022/11/17 00:57:04;;;;;;;6.95;6.28;;;8.20;99.90;;;;;;6118582;23;20204;-70
2022/11/17 00:59:33;;;;;;;7.88;6.60;;;8.20;99.90;;;;;;6118134;23;20231;-71
2022/11/17 01:01:59;;;;;;;7.20;6.45;;;8.20;99.90;;;;;;6119492;23;20610;-71
2022/11/17 01:04:26;;;;;;;6.93;6.28;;;8.20;99.90;;;;;;6119208;23;20228;-71
2022/11/17 01:06:54;;;;;;;6.95;6.35;;;8.30;99.90;;;;;;6119984;23;20198;-70
2022/11/17 01:09:23;;;;;;;6.80;6.20;;;8.30;99.90;;;;;;6119302;23;20229;-71
2022/11/17 01:11:51;;;;;;;7.03;5.90;;;8.30;99.90;;;;;;6118617;23;20237;-70
2022/11/17 01:14:21;;;;;;;8.43;6.50;;;8.30;99.90;;;;;;6105083;23;20213;-70
2022/11/17 01:16:49;;;;;;;7.30;6.57;;;8.40;99.90;;;;;;6114450;23;20217;-71
2022/11/17 01:19:17;;;;;;;7.50;6.63;;;8.40;99.90;;;;;;6120016;23;20665;-71
2022/11/17 01:21:45;;;;;;;6.88;6.18;;;8.50;99.90;;;;;;6118315;23;20215;-71
2022/11/17 01:24:14;;;;;;;7.90;7.10;;;8.40;99.90;;;;;;6118215;23;20224;-70
2022/11/17 01:26:41;;;;;;;7.15;6.45;;;8.40;99.90;;;;;;6119631;23;20262;-70
2022/11/17 01:29:11;;;;;;;7.45;6.28;;;8.40;99.90;;;;;;6119965;23;20208;-70
2022/11/17 01:31:42;;;;;;;6.75;5.78;;;8.40;99.90;;;;;;6116665;23;20324;-71
2022/11/17 01:34:11;;;;;;;7.93;6.70;;;8.40;99.90;;;;;;6118811;23;20685;-70
2022/11/17 01:39:21;;;;;;;6.65;5.90;;;8.40;99.90;;;;;;6116118;23;20566;-71
2022/11/17 01:41:48;;;;;;;7.78;6.13;;;8.40;99.90;;;;;;6119644;23;20216;-71
2022/11/17 01:44:48;;;;;;;6.70;6.00;;;8.40;99.90;;;;;;6118702;23;20292;-70
2022/11/17 01:47:20;;;;;;;7.32;6.05;;;8.50;99.90;;;;;;6094143;23;20219;-70
2022/11/17 01:49:49;;;;;;;9.10;6.60;;;8.50;99.90;;;;;;6106129;23;20627;-70
2022/11/17 01:52:18;;;;;;;6.93;6.30;;;8.50;99.90;;;;;;6118891;23;20307;-70
2022/11/17 01:54:47;;;;;;;7.72;7.03;;;8.50;99.90;;;;;;6118648;23;20609;-71
2022/11/17 01:57:18;;;;;;;7.55;6.85;;;8.60;99.90;;;;;;6121163;23;20193;-70
2022/11/17 01:59:48;;;;;;;7.60;6.90;;;8.60;99.90;;;;;;6114213;23;20278;-70
2022/11/17 02:02:16;;;;;;;9.00;7.38;;;8.60;99.90;;;;;;6119996;23;20281;-71
2022/11/17 02:04:48;;;;;;;9.98;7.13;;;8.60;99.90;;;;;;6119036;23;20749;-71
2022/11/17 02:07:24;;;;;;;9.50;6.32;;;8.60;99.90;;;;;;6120773;23;20800;-71
2022/11/17 02:09:53;;;;;;;7.90;6.20;;;8.50;99.90;;;;;;6112260;23;20655;-71
2022/11/17 02:12:23;;;;;;;6.35;5.75;;;8.50;99.90;;;;;;6097891;23;20204;-71
2022/11/17 02:14:50;;;;;;;8.30;5.95;;;8.50;99.90;;;;;;6115317;23;20230;-71
2022/11/17 02:17:20;;;;;;;6.60;6.00;;;8.50;99.90;;;;;;6119715;23;20194;-71
2022/11/17 02:20:01;;;;;;;6.57;5.95;;;8.50;99.90;;;;;;6094592;23;20194;-71
2022/11/17 02:22:59;;;;;;;6.30;5.10;;;8.40;99.90;;;;;;6118471;23;20200;-71
2022/11/17 02:25:49;;;;;;;6.10;5.57;;;8.50;99.90;;;;;;6118677;23;20280;-71
2022/11/17 02:28:21;;;;;;;5.90;5.30;;;8.40;99.90;;;;;;6096653;23;20194;-71
2022/11/17 02:31:06;;;;;;;6.65;5.25;;;8.40;99.90;;;;;;6112468;23;20198;-71
2022/11/17 02:33:40;;;;;;;5.85;5.35;;;8.40;99.90;;;;;;6116687;23;20567;-71
2022/11/17 02:36:13;;;;;;;6.53;5.93;;;8.40;99.90;;;;;;6119421;23;20269;-71
2022/11/17 02:38:46;;;;;;;6.35;4.97;;;8.40;99.90;;;;;;6118900;23;20193;-71
2022/11/17 02:41:21;;;;;;;7.65;5.85;;;8.40;99.90;;;;;;6091220;23;20257;-71
2022/11/17 02:44:04;;;;;;;6.40;5.90;;;8.40;99.90;;;;;;6116566;23;20218;-71
2022/11/17 02:46:40;;;;;;;6.60;5.88;;;8.30;99.90;;;;;;6118892;23;20751;-71
2022/11/17 02:49:16;;;;;;;7.15;6.47;;;8.30;99.90;;;;;;6115473;23;20212;-71
2022/11/17 02:51:44;;;;;;;6.05;5.55;;;8.20;99.90;;;;;;6119617;23;20654;-71
2022/11/17 02:54:12;;;;;;;7.28;6.57;;;8.20;99.90;;;;;;6085186;23;20235;-71
2022/11/17 02:56:43;;;;;;;9.27;6.35;;;8.20;99.90;;;;;;6097857;23;20309;-71
2022/11/17 02:59:13;;;;;;;5.65;5.15;;;8.20;99.90;;;;;;6075434;23;20226;-72
2022/11/17 03:02:13;;;;;;;5.90;5.25;;;8.20;99.90;;;;;;6077407;23;20202;-71
2022/11/17 03:04:48;;;;;;;5.80;5.30;;;8.20;99.90;;;;;;6075325;23;20285;-71
2022/11/17 03:07:31;;;;;;;5.55;5.15;;;8.10;99.90;;;;;;6088605;23;20284;-71
2022/11/17 03:10:07;;;;;;;6.03;5.40;;;8.10;99.90;;;;;;6089425;23;20761;-72
2022/11/17 03:12:40;;;;;;;5.97;5.38;;;8.10;99.90;;;;;;6089172;23;20272;-72
2022/11/17 03:15:16;;;;;;;5.57;4.97;;;8.10;99.90;;;;;;6070056;23;20201;-71
2022/11/17 03:17:49;;;;;;;6.22;5.63;;;8.20;99.90;;;;;;6088304;23;20539;-71
2022/11/17 03:20:22;;;;;;;8.82;6.22;;;8.20;99.90;;;;;;6089740;23;20526;-71
2022/11/17 03:22:52;;;;;;;6.15;5.55;;;8.30;99.90;;;;;;6093694;23;20290;-71
2022/11/17 03:25:22;;;;;;;6.47;5.28;;;8.40;99.90;;;;;;6085786;23;20271;-72
2022/11/17 03:27:52;;;;;;;5.65;5.05;;;8.50;99.90;;;;;;6088659;23;20194;-71
2022/11/17 03:30:21;;;;;;;5.35;4.80;;;8.60;99.90;;;;;;6087883;23;20204;-72
2022/11/17 03:32:53;;;;;;;5.50;5.10;;;8.70;99.90;;;;;;6080058;23;20200;-72
2022/11/17 03:35:24;;;;;;;5.47;4.97;;;8.70;99.90;;;;;;6089360;23;20317;-71
2022/11/17 03:37:54;;;;;;;5.22;4.75;;;8.70;99.90;;;;;;6093595;23;20205;-72
2022/11/17 03:40:26;;;;;;;5.22;4.70;;;8.70;99.90;;;;;;6103920;23;20195;-71
2022/11/17 03:42:57;;;;;;;5.90;5.40;;;8.70;99.90;;;;;;6108908;23;20228;-72
2022/11/17 03:45:28;;;;;;;5.68;4.97;;;8.60;99.90;;;;;;6098145;23;20526;-72
2022/11/17 03:48:00;;;;;;;8.45;6.05;;;8.60;99.90;;;;;;6074851;23;20283;-71
2022/11/17 03:50:32;;;;;;;6.80;6.05;;;8.60;99.90;;;;;;6089768;23;20336;-71
2022/11/17 03:53:01;;;;;;;7.82;5.70;;;8.60;99.90;;;;;;6086814;23;20252;-72
2022/11/17 03:55:37;;;;;;;7.15;5.88;;;8.60;99.90;;;;;;6089866;23;20620;-72
2022/11/17 03:58:09;;;;;;;6.40;5.80;;;8.60;99.90;;;;;;6106014;23;20631;-72
2022/11/17 04:00:40;;;;;;;6.00;5.40;;;8.50;99.90;;;;;;6111162;23;20194;-72
2022/11/17 04:03:07;;;;;;;6.55;5.95;;;8.50;99.90;;;;;;6061204;23;20276;-72
2022/11/17 04:05:34;;;;;;;6.65;6.05;;;8.50;99.90;;;;;;6076955;23;20550;-71
2022/11/17 04:08:01;;;;;;;5.60;5.10;;;8.50;99.90;;;;;;6089124;23;20222;-72
2022/11/17 04:10:28;;;;;;;6.25;5.65;;;8.50;99.90;;;;;;6089008;23;20599;-72
2022/11/17 04:15:57;;;;;;;5.95;5.45;;;8.50;99.90;;;;;;6107125;23;20270;-71
2022/11/17 04:18:25;;;;;;;6.60;5.32;;;8.50;99.90;;;;;;6119606;23;20280;-72
2022/11/17 04:20:54;;;;;;;5.47;4.97;;;8.50;99.90;;;;;;6097091;23;20296;-71
2022/11/17 04:23:21;;;;;;;5.63;4.97;;;8.50;99.90;;;;;;6090097;23;20254;-72
2022/11/17 04:28:37;;;;;;;4.85;4.28;;;8.60;99.90;;;;;;6089869;23;20278;-71
2022/11/17 04:31:12;;;;;;;5.10;4.38;;;8.70;99.90;;;;;;6111532;23;20195;-71
2022/11/17 04:33:41;;;;;;;5.22;4.72;;;8.70;99.90;;;;;;6119238;23;20329;-71
2022/11/17 04:36:10;;;;;;;5.18;4.68;;;8.70;99.90;;;;;;6092290;23;20226;-72
2022/11/17 04:38:40;;;;;;;5.85;4.60;;;8.70;99.90;;;;;;6081865;23;20205;-72
2022/11/17 04:43:54;;;;;;;7.40;4.70;;;8.80;99.90;;;;;;6094892;23;20213;-72
2022/11/17 04:46:24;;;;;;;5.13;4.72;;;8.90;99.90;;;;;;6102749;23;20828;-72
2022/11/17 04:48:52;;;;;;;4.53;4.13;;;8.80;99.90;;;;;;6094042;23;20667;-72
2022/11/17 04:51:19;;;;;;;4.50;4.10;;;8.90;99.90;;;;;;6108585;23;20484;-72
2022/11/17 04:53:47;;;;;;;4.95;3.95;;;8.90;99.90;;;;;;6111278;23;20271;-71
2022/11/17 04:56:15;;;;;;;5.82;4.60;;;9.00;99.90;;;;;;6119841;23;20204;-72
2022/11/17 04:58:42;;;;;;;4.60;3.92;;;9.00;99.90;;;;;;6107440;23;20199;-72
2022/11/17 05:01:12;;;;;;;4.72;4.32;;;9.00;99.90;;;;;;6093351;23;20198;-71
2022/11/17 05:03:45;;;;;;;4.85;4.45;;;9.00;99.90;;;;;;6116509;23;20780;-72
2022/11/17 05:06:15;;;;;;;4.57;4.28;;;9.00;99.90;;;;;;6117791;23;20264;-71
2022/11/17 05:08:43;;;;;;;5.45;4.13;;;9.00;99.90;;;;;;6091246;23;20654;-72
2022/11/17 05:13:57;;;;;;;4.43;4.03;;;9.00;99.90;;;;;;6121227;23;20222;-72
2022/11/17 05:19:12;;;;;;;4.70;4.20;;;9.10;99.90;;;;;;6149766;23;20784;-72
2022/11/17 05:21:39;;;;;;;4.63;4.22;;;9.10;99.90;;;;;;6121192;23;20224;-71
2022/11/17 05:24:07;;;;;;;4.30;3.90;;;9.10;99.90;;;;;;6120141;23;20227;-72
2022/11/17 05:26:36;;;;;;;5.47;4.20;;;9.10;99.90;;;;;;6139633;23;20651;-72
2022/11/17 05:29:05;;;;;;;4.63;4.22;;;9.10;99.90;;;;;;6124646;23;20195;-72
2022/11/17 05:31:33;;;;;;;5.15;4.75;;;9.10;99.90;;;;;;6119262;23;20524;-72
2022/11/17 05:34:01;;;;;;;4.95;4.57;;;9.10;99.90;;;;;;6117956;23;20190;-71
2022/11/17 05:36:30;;;;;;;4.25;3.88;;;9.10;99.90;;;;;;6131276;23;20262;-72
2022/11/17 05:38:57;;;;;;;4.32;3.92;;;9.10;99.90;;;;;;6118970;23;20208;-72
2022/11/17 05:41:25;;;;;;;4.85;4.45;;;9.10;99.90;;;;;;6098685;23;20200;-73
2022/11/17 05:43:52;;;;;;;6.15;4.20;;;9.10;99.90;;;;;;6101092;23;20286;-76
2022/11/17 05:46:21;;;;;;;5.63;4.45;;;9.10;99.90;;;;;;6106217;23;20193;-76
2022/11/17 05:48:51;;;;;;;4.68;4.13;;;9.20;99.90;;;;;;6102764;23;20692;-75
2022/11/17 05:51:19;;;;;;;4.38;3.97;;;9.20;99.90;;;;;;6105292;23;20686;-72
2022/11/17 05:53:48;;;;;;;4.55;4.15;;;9.30;99.90;;;;;;6076585;23;20279;-72
2022/11/17 05:56:30;;;;;;;4.18;3.88;;;9.30;99.90;;;;;;6075236;23;20204;-72
2022/11/17 05:59:01;;;;;;;5.70;4.60;;;9.30;99.90;;;;;;6074218;23;20195;-72
2022/11/17 06:01:29;;;;;;;4.13;3.83;;;9.30;99.90;;;;;;6081908;23;20191;-72
2022/11/17 06:04:00;;;;;;;4.40;4.00;;;9.20;99.90;;;;;;6088756;23;20218;-72
2022/11/17 06:06:27;;;;;;;5.22;3.95;;;9.30;99.90;;;;;;6077158;23;20666;-73
2022/11/17 06:08:56;;;;;;;4.53;4.13;;;9.30;99.90;;;;;;6079793;23;20197;-73
2022/11/17 06:11:23;;;;;;;4.07;3.72;;;9.30;99.90;;;;;;6076929;23;20704;-77
2022/11/17 06:13:50;;;;;;;5.05;3.75;;;9.40;99.90;;;;;;6081232;23;20215;-72
2022/11/17 06:16:21;;;;;;;3.53;3.22;;;9.40;99.90;;;;;;6089594;23;20266;-72
2022/11/17 06:18:52;;;;;;;4.53;3.60;;;9.40;99.90;;;;;;6096327;23;20194;-71
2022/11/17 06:21:21;;;;;;;3.83;3.20;;;9.40;99.90;;;;;;6074155;23;20667;-72
2022/11/17 06:23:49;;;;;;;3.47;2.85;;;9.50;99.90;;;;;;6089799;23;20273;-71
2022/11/17 06:26:18;;;;;;;6.45;3.20;;;9.50;99.90;;;;;;6092306;23;20192;-71
2022/11/17 06:28:48;;;;;;;3.13;2.75;;;9.60;99.90;;;;;;6090722;23;20315;-69
2022/11/17 06:31:17;;;;;;;4.35;3.30;;;9.60;99.90;;;;;;6088801;23;20628;-71
2022/11/17 06:33:45;;;;;;;3.83;3.05;;;9.60;99.90;;;;;;6082574;23;20536;-70
2022/11/17 06:36:13;;;;;;;4.10;3.70;;;9.70;99.90;;;;;;6081177;23;20195;-70
2022/11/17 06:38:40;;;;;;;4.57;4.18;;;9.70;99.90;;;;;;6072993;23;20688;-70
2022/11/17 06:41:07;;;;;;;3.67;3.10;;;9.70;99.90;;;;;;6082228;23;20704;-70
2022/11/17 06:43:35;;;;;;;3.70;3.40;;;9.70;99.90;;;;;;6088759;23;20195;-70
2022/11/17 06:46:04;;;;;;;3.97;3.45;;;9.70;99.90;;;;;;6088587;23;20725;-70
2022/11/17 06:48:34;;;;;;;4.05;3.65;;;9.70;99.90;;;;;;6090592;23;20196;-70
2022/11/17 06:51:03;;;;;;;4.10;3.72;;;9.70;99.90;;;;;;6088218;23;20196;-70
2022/11/17 06:53:31;;;;;;;3.78;3.40;;;9.70;99.90;;;;;;6087821;23;20194;-70
2022/11/17 06:58:41;;;;;;;3.85;2.97;;;9.70;99.90;;;;;;6057955;23;20299;-70
2022/11/17 07:01:10;;;;;;;3.33;3.03;;;9.70;99.90;;;;;;6078890;23;20196;-70
2022/11/17 07:03:39;;;;;;;3.00;2.78;;;9.80;99.90;;;;;;6090180;23;20407;-70
2022/11/17 07:06:08;;;;;;;3.10;2.80;;;9.80;99.90;;;;;;6082537;23;20507;-70
2022/11/17 07:08:36;;;;;;;2.92;2.72;;;9.80;99.90;;;;;;6045520;23;20199;-70
2022/11/17 07:11:04;;;;;;;2.90;2.55;;;9.80;99.90;;;;;;6072719;23;20204;-70
2022/11/17 07:13:33;;;;;;;2.75;2.55;;;9.80;99.90;;;;;;6074959;23;20188;-70
2022/11/17 07:16:05;;;;;;;3.58;2.72;;;9.90;99.90;;;;;;6072381;23;20227;-71
2022/11/17 07:18:32;;;;;;;2.85;2.65;;;9.90;99.90;;;;;;6084190;23;20337;-70
2022/11/17 07:21:03;;;;;;;2.90;2.50;;;10.00;99.90;;;;;;6081952;23;20230;-70
2022/11/17 07:23:31;;;;;;;2.85;2.30;;;10.00;99.90;;;;;;6109757;23;20545;-71
2022/11/17 07:25:58;;;;;;;2.88;2.53;;;10.10;99.90;;;;;;6082164;23;20245;-71
2022/11/17 07:28:27;;;;;;;3.40;3.10;;;10.20;99.90;;;;;;6076384;23;20199;-71
2022/11/17 07:30:56;;;;;;;2.80;2.60;;;10.30;99.90;;;;;;6086487;23;20279;-71
2022/11/17 07:33:24;;;;;;;4.75;2.88;;;10.40;99.90;;;;;;6085302;23;20220;-71
2022/11/17 07:35:52;;;;;;;4.00;3.00;;;10.40;99.90;;;;;;6088830;23;20192;-71
2022/11/17 07:38:19;;;;;;;2.90;2.60;;;10.40;99.90;;;;;;6088933;23;20196;-71
2022/11/17 07:40:46;;;;;;;4.22;2.97;;;10.40;99.90;;;;;;6086345;23;20206;-71
2022/11/17 07:43:13;;;;;;;4.07;3.22;;;10.50;99.90;;;;;;6087396;23;20257;-70
2022/11/17 07:45:40;;;;;;;3.20;2.90;;;10.50;99.90;;;;;;6080152;23;20344;-71
2022/11/17 07:48:07;;;;;;;4.55;2.92;;;10.50;99.90;;;;;;6094901;23;20664;-71
2022/11/17 07:50:38;;;;;;;2.85;2.65;;;10.50;99.90;;;;;;6079571;23;20228;-71
2022/11/17 07:53:05;;;;;;;3.72;2.50;;;10.60;99.90;;;;;;6092195;23;20195;-71
2022/11/17 07:55:32;;;;;;;6.07;2.90;;;10.60;99.90;;;;;;6102903;23;20263;-71
2022/11/17 07:58:02;;;;;;;3.20;2.38;;;10.60;99.90;;;;;;6106912;23;20202;-71
2022/11/17 08:00:32;;;;;;;4.40;2.38;;;10.60;99.90;;;;;;6110153;23;20272;-71
2022/11/17 08:03:00;;;;;;;3.25;2.20;;;10.70;99.90;;;;;;6109254;23;20199;-71
2022/11/17 08:05:29;;;;;;;2.80;2.60;;;10.70;99.90;;;;;;6109936;23;20280;-71
2022/11/17 08:08:00;;;;;;;2.50;2.22;;;10.90;99.90;;;;;;6103398;23;20553;-71
2022/11/17 08:10:30;;;;;;;3.55;2.42;;;10.70;99.90;;;;;;6104550;23;20266;-71
2022/11/17 08:12:58;;;;;;;2.20;2.00;;;10.70;99.90;;;;;;6116755;23;20191;-71
2022/11/17 08:15:25;;;;;;;2.03;1.83;;;10.70;99.90;;;;;;6109854;23;20254;-71
2022/11/17 08:17:53;;;;;;;1.88;1.60;;;10.80;99.90;;;;;;6104183;23;20273;-71
2022/11/17 08:20:21;;;;;;;3.13;2.00;;;10.80;99.90;;;;;;6108407;23;20188;-70
2022/11/17 08:22:50;;;;;;;1.90;1.60;;;10.80;99.90;;;;;;6104787;23;20202;-71
2022/11/17 08:25:19;;;;;;;2.05;1.55;;;10.90;99.90;;;;;;6116261;23;20215;-71
2022/11/17 08:27:47;;;;;;;2.55;1.55;;;10.90;99.90;;;;;;6107186;23;20679;-71
2022/11/17 08:30:14;;;;;;;3.15;1.60;;;11.00;99.90;;;;;;6096609;23;20191;-71
2022/11/17 08:32:47;;;;;;;3.05;1.50;;;11.00;99.90;;;;;;6112478;23;20207;-71
2022/11/17 08:35:14;;;;;;;2.65;1.50;;;11.00;99.90;;;;;;6104885;23;20898;-71
2022/11/17 08:37:42;;;;;;;2.35;1.40;;;11.10;99.90;;;;;;6085067;23;20237;-71
2022/11/17 08:40:10;;;;;;;1.95;1.00;;;11.20;99.90;;;;;;6107057;23;20214;-71
2022/11/17 08:42:38;;;;;;;1.90;1.05;;;11.20;99.90;;;;;;6112248;23;20204;-71
2022/11/17 08:45:07;;;;;;;1.73;0.90;;;11.40;99.90;;;;;;6089081;23;20246;-71
2022/11/17 08:47:34;;;;;;;1.63;0.80;;;11.40;99.90;;;;;;6099113;23;20649;-71
2022/11/17 08:50:01;;;;;;;3.40;1.20;;;11.50;99.90;;;;;;6094662;23;20257;-71
2022/11/17 08:52:30;;;;;;;4.60;1.15;;;11.70;99.90;;;;;;6108103;23;20267;-70
2022/11/17 08:54:58;;;;;;;3.70;0.80;;;11.80;99.90;;;;;;6074345;23;20184;-71
2022/11/17 08:57:25;;;;;;;3.95;1.02;;;11.80;99.90;;;;;;6080960;23;20760;-71
2022/11/17 08:59:53;;;;;;;3.17;1.00;;;11.90;99.90;;;;;;6081992;23;20211;-71
2022/11/17 09:02:20;;;;;;;2.00;0.90;;;12.00;99.90;;;;;;6084774;23;20187;-71
2022/11/17 09:04:47;;;;;;;1.60;1.10;;;12.10;99.90;;;;;;6080583;23;20578;-71
2022/11/17 09:07:14;;;;;;;3.17;1.02;;;12.30;99.90;;;;;;6080925;23;20334;-70
2022/11/17 09:09:42;;;;;;;3.55;1.08;;;12.30;99.90;;;;;;6082364;23;20243;-71
2022/11/17 09:12:10;;;;;;;1.58;0.90;;;12.30;99.90;;;;;;6083945;23;20271;-71
2022/11/17 09:14:37;;;;;;;1.33;0.85;;;12.50;99.90;;;;;;6078162;23;20220;-70
2022/11/17 09:17:06;;;;;;;1.92;0.80;;;12.70;99.90;;;;;;6086019;23;20642;-71
2022/11/17 09:19:33;;;;;;;2.63;1.00;;;13.00;99.90;;;;;;6084060;23;20227;-71
2022/11/17 09:22:01;;;;;;;1.48;0.77;;;13.10;99.90;;;;;;6083961;23;20443;-71
2022/11/17 09:24:28;;;;;;;1.98;0.95;;;13.10;99.90;;;;;;6084174;23;20215;-70
2022/11/17 09:26:56;;;;;;;0.93;0.70;;;13.00;99.90;;;;;;6080663;23;20258;-71
2022/11/17 09:29:24;;;;;;;1.63;0.82;;;12.90;99.90;;;;;;6076947;23;20255;-71
2022/11/17 09:31:51;;;;;;;2.80;0.95;;;12.90;99.90;;;;;;6076206;23;20271;-71
2022/11/17 09:34:19;;;;;;;0.80;0.60;;;12.80;99.90;;;;;;6086727;23;20642;-70
2022/11/17 09:36:48;;;;;;;2.13;0.85;;;12.70;99.90;;;;;;6088905;23;20192;-71
2022/11/17 09:39:15;;;;;;;2.80;1.08;;;12.70;99.90;;;;;;6077952;23;20226;-71
2022/11/17 09:41:44;;;;;;;1.90;0.90;;;12.60;99.90;;;;;;6091198;23;20238;-71
2022/11/17 09:44:21;;;;;;;1.67;1.10;;;12.60;99.90;;;;;;6080530;23;20266;-71
2022/11/17 09:47:10;;;;;;;3.42;0.90;;;12.60;99.90;;;;;;6076088;23;20288;-70
2022/11/17 09:49:49;;;;;;;4.20;1.50;;;12.60;99.90;;;;;;6090761;23;20264;-71
2022/11/17 09:52:21;;;;;;;2.20;0.80;;;12.60;99.90;;;;;;6094740;23;20881;-71
2022/11/17 09:54:53;;;;;;;2.67;0.80;;;12.60;99.90;;;;;;6143054;23;20437;-71
2022/11/17 09:57:26;;;;;;;1.50;0.60;;;12.60;99.90;;;;;;6143091;23;20190;-71
2022/11/17 10:00:07;;;;;;;2.03;0.80;;;12.60;99.90;;;;;;6145546;23;20437;-71
2022/11/17 10:02:35;;;;;;;1.43;0.93;;;12.60;99.90;;;;;;6139740;23;20939;-71
2022/11/17 10:05:05;;;;;;;2.13;1.05;;;12.70;99.90;;;;;;6136259;23;20896;-71
2022/11/17 10:07:34;;;;;;;2.50;0.80;;;12.70;99.90;;;;;;6142751;23;20188;-71
2022/11/17 10:10:03;;;;;;;1.47;0.80;;;12.70;99.90;;;;;;6124142;23;20450;-70
2022/11/17 10:12:36;;;;;;;3.80;1.23;;;12.80;99.90;;;;;;6139346;23;20441;-71
2022/11/17 10:15:21;;;;;;;2.07;0.80;;;12.80;99.90;;;;;;6133924;23;20533;-70
2022/11/17 10:17:49;;;;;;;2.92;1.15;;;12.80;99.90;;;;;;6148325;23;20971;-71
2022/11/17 10:20:19;;;;;;;3.67;1.10;;;12.80;99.90;;;;;;6138909;23;20268;-70
2022/11/17 10:22:47;;;;;;;2.83;1.40;;;12.90;99.90;;;;;;6145540;23;20465;-70
2022/11/17 10:25:23;;;;;;;3.77;1.00;;;12.90;99.90;;;;;;6143687;23;20867;-71
2022/11/17 10:27:53;;;;;;;1.73;0.83;;;13.00;99.90;;;;;;6132946;23;20497;-71
2022/11/17 10:30:23;;;;;;;2.45;1.40;;;13.10;99.90;;;;;;6140720;23;20828;-71
2022/11/17 10:32:52;;;;;;;3.00;1.27;;;13.20;99.90;;;;;;6141338;23;20677;-71
2022/11/17 10:35:23;;;;;;;1.80;1.00;;;13.30;99.90;;;;;;6146048;23;20881;-71
2022/11/17 10:37:56;;;;;;;2.43;1.00;;;13.30;99.90;;;;;;6142899;23;20429;-71
2022/11/17 10:40:25;;;;;;;3.20;1.20;;;13.30;99.90;;;;;;6147939;23;20421;-72
2022/11/17 10:43:05;;;;;;;1.73;0.93;;;13.30;99.90;;;;;;6138149;23;20492;-72
2022/11/17 10:45:33;;;;;;;6.40;1.73;;;13.20;99.90;;;;;;6146882;23;21022;-72
2022/11/17 10:48:18;;;;;;;4.43;1.23;;;13.20;99.90;;;;;;6145421;23;20955;-71
2022/11/17 10:50:59;;;;;;;3.63;1.30;;;13.10;99.90;;;;;;6136803;23;20425;-72
2022/11/17 10:53:32;;;;;;;3.33;1.13;;;13.00;99.90;;;;;;6132887;23;20194;-72
2022/11/17 10:56:14;;;;;;;3.07;1.10;;;13.10;99.90;;;;;;6143932;23;20178;-72
2022/11/17 10:58:59;;;;;;;3.73;1.67;;;13.10;99.90;;;;;;6137689;23;20469;-71
2022/11/17 11:01:35;;;;;;;3.03;0.90;;;13.10;99.90;;;;;;6132853;23;20504;-71
2022/11/17 11:04:05;;;;;;;2.40;1.23;;;13.10;99.90;;;;;;6145062;23;20445;-71
2022/11/17 11:06:34;;;;;;;2.60;0.90;;;13.10;99.90;;;;;;6147835;23;20246;-71
2022/11/17 11:09:05;;;;;;;3.53;1.03;;;13.40;99.90;;;;;;6129128;23;20466;-71
2022/11/17 11:11:43;;;;;;;2.23;0.97;;;13.60;99.90;;;;;;6132925;23;20444;-71
2022/11/17 11:14:19;;;;;;;5.50;1.30;;;13.80;99.90;;;;;;6128750;23;20926;-72
2022/11/17 11:16:47;;;;;;;3.60;1.20;;;14.00;99.90;;;;;;6130402;23;20430;-71
2022/11/17 11:19:16;;;;;;;2.40;1.10;;;14.30;99.90;;;;;;6145779;23;20529;-72
2022/11/17 11:21:56;;;;;;;1.90;1.00;;;14.80;99.90;;;;;;6147875;23;20846;-72
2022/11/17 11:24:34;;;;;;;2.60;0.93;;;15.10;99.90;;;;;;6135851;23;20906;-71
2022/11/17 11:27:23;;;;;;;2.40;1.17;;;15.50;99.90;;;;;;6123592;23;20441;-72
2022/11/17 11:30:01;;;;;;;3.57;1.40;;;15.60;99.90;;;;;;6151291;23;20429;-71
2022/11/17 11:32:36;;;;;;;2.73;1.20;;;16.00;99.90;;;;;;6143017;23;20440;-71
2022/11/17 11:35:31;;;;;;;2.43;1.10;;;16.20;99.90;;;;;;6131164;23;20742;-71
2022/11/17 11:38:10;;;;;;;1.33;1.10;;;16.20;99.90;;;;;;6146424;23;20452;-71
2022/11/17 11:40:40;;;;;;;1.90;0.93;;;16.30;99.90;;;;;;6132573;23;20437;-71
2022/11/17 11:43:23;;;;;;;3.00;1.00;;;16.40;99.90;;;;;;6131560;23;20459;-72
2022/11/17 11:46:03;;;;;;;2.50;1.00;;;16.50;99.90;;;;;;6125731;23;20528;-72
2022/11/17 11:48:32;;;;;;;1.60;1.07;;;16.60;99.90;;;;;;6115855;23;20424;-71
2022/11/17 11:51:05;;;;;;;2.30;0.90;;;16.30;99.90;;;;;;6122850;23;20542;-71
2022/11/17 11:53:41;;;;;;;3.63;1.20;;;15.80;99.90;;;;;;6133979;23;20615;-71
2022/11/17 11:56:14;;;;;;;3.70;0.80;;;15.00;99.90;;;;;;6142413;23;20533;-71
2022/11/17 11:58:46;;;;;;;1.80;0.80;;;14.50;99.90;;;;;;6138617;23;20430;-71
2022/11/17 12:01:16;;;;;;;1.87;1.10;;;14.30;99.90;;;;;;6149584;23;20973;-71
2022/11/17 12:03:49;;;;;;;2.37;0.80;;;14.60;99.90;;;;;;6137770;23;20434;-73
2022/11/17 12:06:40;;;;;;;2.03;0.87;;;14.90;99.90;;;;;;6141380;23;20933;-71
2022/11/17 12:09:23;;;;;;;2.27;1.30;;;15.30;99.90;;;;;;6141770;23;20428;-71
2022/11/17 12:12:01;;;;;;;1.67;1.10;;;15.60;99.90;;;;;;6147694;23;20463;-71
2022/11/17 12:14:30;;;;;;;2.60;1.00;;;16.00;99.90;;;;;;6139570;23;20663;-71
2022/11/17 12:17:05;;;;;;;3.50;1.07;;;16.10;99.90;;;;;;6134170;23;20436;-71
2022/11/17 12:19:52;;;;;;;2.27;1.10;;;16.00;99.90;;;;;;6129380;23;20515;-71
2022/11/17 12:22:43;;;;;;;2.07;1.30;;;16.10;99.90;;;;;;6134190;23;20440;-71
2022/11/17 12:25:18;;;;;;;1.90;1.10;;;16.00;99.90;;;;;;6144667;23;20432;-71
2022/11/17 12:27:48;;;;;;;1.90;1.10;;;15.90;99.90;;;;;;6137243;23;20468;-71
2022/11/17 12:30:53;;;;;;;1.10;0.80;;;15.90;99.90;;;;;;6143148;23;20433;-71
2022/11/17 12:33:21;;;;;;;1.87;1.00;;;16.10;99.90;;;;;;6144271;23;21444;-71
2022/11/17 12:36:24;;;;;;;1.50;1.00;;;16.10;99.90;;;;;;6125989;23;20465;-71
2022/11/17 12:38:52;;;;;;;1.83;1.07;;;16.20;99.90;;;;;;6145535;23;20523;-71
2022/11/17 12:41:54;;;;;;;2.10;1.10;;;16.10;99.90;;;;;;6142434;23;20436;-71
2022/11/17 12:44:54;;;;;;;1.87;0.90;;;16.00;99.90;;;;;;6136680;23;21041;-72
2022/11/17 12:47:24;;;;;;;1.50;0.90;;;16.00;99.90;;;;;;6127629;23;20985;-71
2022/11/17 12:50:11;;;;;;;2.87;1.03;;;15.90;99.90;;;;;;6133928;23;20756;-71
2022/11/17 12:52:50;;;;;;;2.40;1.30;;;16.00;99.90;;;;;;6136133;23;20449;-71
2022/11/17 12:55:26;;;;;;;1.73;0.87;;;16.10;99.90;;;;;;6120576;23;20928;-72
2022/11/17 12:57:59;;;;;;;5.33;1.37;;;16.20;99.90;;;;;;6139711;23;20927;-72
2022/11/17 13:00:28;;;;;;;2.60;1.20;;;16.30;99.90;;;;;;6146417;23;20436;-72
2022/11/17 13:03:09;;;;;;;3.33;1.53;;;16.50;99.90;;;;;;6128432;23;20448;-72
2022/11/17 13:05:37;;;;;;;3.23;1.20;;;16.50;99.90;;;;;;6144078;23;20468;-72
2022/11/17 13:08:26;;;;;;;3.00;1.30;;;16.50;99.90;;;;;;6132959;23;20560;-75
2022/11/17 13:11:04;;;;;;;3.13;1.67;;;16.30;99.90;;;;;;6129868;23;20445;-71
2022/11/17 13:13:31;;;;;;;3.23;1.30;;;16.10;99.90;;;;;;6142899;23;20432;-71
2022/11/17 13:16:00;;;;;;;3.10;1.47;;;15.90;99.90;;;;;;6144809;23;20530;-71
2022/11/17 13:18:35;;;;;;;5.00;1.93;;;15.80;99.90;;;;;;6131735;23;20459;-72
2022/11/17 13:21:03;;;;;;;3.77;1.50;;;15.80;99.90;;;;;;6134231;23;20432;-71
2022/11/17 13:23:33;;;;;;;3.13;1.57;;;15.90;99.90;;;;;;6136945;23;20448;-72
2022/11/17 13:26:11;;;;;;;5.97;1.80;;;15.80;99.90;;;;;;6130171;23;20478;-71
2022/11/17 13:28:38;;;;;;;2.50;1.20;;;15.90;99.90;;;;;;6125769;23;20511;-71
2022/11/17 13:31:06;;;;;;;5.07;1.30;;;16.00;99.90;;;;;;6147352;23;20440;-71
2022/11/17 13:33:35;;;;;;;2.90;1.10;;;15.90;99.90;;;;;;6127435;23;20475;-72
2022/11/17 13:36:17;;;;;;;3.37;1.47;;;15.90;99.90;;;;;;6136671;23;20440;-72
2022/11/17 13:38:48;;;;;;;4.97;1.53;;;15.90;99.90;;;;;;6139255;23;20512;-72
2022/11/17 13:41:16;;;;;;;2.97;1.27;;;15.90;99.90;;;;;;6129152;23;20842;-72
2022/11/17 13:43:45;;;;;;;4.27;1.60;;;16.00;99.90;;;;;;6138245;23;20455;-73